Time;durP1;ratioP1;P1;durP2;ratioP2;P2;SDS_P1;SDS_P2;PMS_P1;PMS_P2;Temp;Humidity;BMP_temperature;BMP_pressure;BME280_temperature;BME280_humidity;BME280_pressure;Samples;Min_cycle;Max_cycle;Signal;HPM_P1;HPM_P2
2023/01/19 00:02:01;;;;;;;10.53;7.47;;;0.70;99.90;;;;;;8334529;28;20182;-65
2023/01/19 00:06:06;;;;;;;10.60;6.87;;;0.60;99.90;;;;;;8326382;28;20513;-65
2023/01/19 00:10:08;;;;;;;9.80;6.27;;;0.60;99.90;;;;;;8332428;28;20283;-65
2023/01/19 00:14:09;;;;;;;11.27;7.30;;;0.60;99.90;;;;;;8324264;28;20238;-65
2023/01/19 00:18:10;;;;;;;9.93;6.00;;;0.60;99.90;;;;;;8334468;28;20264;-65
2023/01/19 00:22:11;;;;;;;11.10;6.00;;;0.50;99.90;;;;;;8335170;28;20300;-65
2023/01/19 00:26:16;;;;;;;10.10;6.80;;;0.50;99.90;;;;;;8334336;28;21638;-65
2023/01/19 00:30:16;;;;;;;9.03;6.47;;;0.50;99.90;;;;;;8348458;28;20218;-65
2023/01/19 00:34:17;;;;;;;8.13;6.07;;;0.50;99.90;;;;;;8345876;28;20291;-65
2023/01/19 00:38:18;;;;;;;8.40;5.93;;;0.50;99.90;;;;;;8339517;28;20199;-65
2023/01/19 00:46:38;;;;;;;7.17;5.17;;;0.50;99.90;;;;;;8335326;28;20216;-67
2023/01/19 00:50:39;;;;;;;8.20;5.97;;;0.50;99.90;;;;;;8339067;28;20300;-67
2023/01/19 00:54:39;;;;;;;8.57;6.67;;;0.50;99.90;;;;;;8333233;28;20178;-66
2023/01/19 00:58:40;;;;;;;9.40;6.20;;;0.50;99.90;;;;;;8338004;28;20184;-66
2023/01/19 01:02:43;;;;;;;8.83;6.20;;;0.50;99.90;;;;;;8331827;28;20235;-66
2023/01/19 01:06:43;;;;;;;10.23;7.07;;;0.40;99.90;;;;;;8340407;28;20233;-64
2023/01/19 01:10:44;;;;;;;8.40;5.93;;;0.40;99.90;;;;;;8338411;28;20466;-64
2023/01/19 01:14:45;;;;;;;8.57;6.40;;;0.40;99.90;;;;;;8337310;28;20170;-64
2023/01/19 01:18:46;;;;;;;8.97;6.20;;;0.30;99.90;;;;;;8342804;28;20180;-66
2023/01/19 01:22:49;;;;;;;8.63;5.97;;;0.30;99.90;;;;;;8329320;28;20186;-66
2023/01/19 01:26:50;;;;;;;7.43;6.17;;;0.30;99.90;;;;;;8332621;28;20187;-64
2023/01/19 01:30:55;;;;;;;8.80;6.33;;;0.30;99.90;;;;;;8333707;28;20223;-65
2023/01/19 01:34:56;;;;;;;11.07;7.50;;;0.30;99.90;;;;;;8332962;28;20203;-64
2023/01/19 01:38:57;;;;;;;8.67;6.40;;;0.30;99.90;;;;;;8335783;28;20250;-65
2023/01/19 01:42:58;;;;;;;9.60;6.40;;;0.30;99.90;;;;;;8332979;28;20204;-67
2023/01/19 01:46:59;;;;;;;8.43;5.97;;;0.30;99.90;;;;;;8337371;28;20189;-64
2023/01/19 01:51:25;;;;;;;11.57;6.83;;;0.30;99.90;;;;;;8332716;28;20237;-67
2023/01/19 01:55:27;;;;;;;7.97;6.20;;;0.30;99.90;;;;;;8332587;28;20358;-66
2023/01/19 01:59:37;;;;;;;10.60;6.30;;;0.30;99.90;;;;;;8337414;28;20256;-67
2023/01/19 02:03:38;;;;;;;9.10;6.17;;;0.30;99.90;;;;;;8333405;28;20181;-67
2023/01/19 02:16:33;;;;;;;6.10;4.80;;;0.40;99.90;;;;;;8333016;28;20197;-66
2023/01/19 02:20:36;;;;;;;5.10;4.13;;;0.40;99.90;;;;;;8333237;28;20196;-65
2023/01/19 02:24:37;;;;;;;6.67;4.63;;;0.40;99.90;;;;;;8331862;28;20192;-65
2023/01/19 02:28:45;;;;;;;7.30;5.10;;;0.40;99.90;;;;;;8328895;28;20574;-66
2023/01/19 02:32:46;;;;;;;6.70;4.37;;;0.40;99.90;;;;;;8329869;28;20477;-66
2023/01/19 02:37:05;;;;;;;5.47;4.10;;;0.40;99.90;;;;;;8335193;28;20286;-66
2023/01/19 02:41:10;;;;;;;4.90;3.73;;;0.40;99.90;;;;;;8332244;28;20205;-66
2023/01/19 02:45:13;;;;;;;5.37;3.67;;;0.40;99.90;;;;;;8335342;28;20263;-66
2023/01/19 02:49:14;;;;;;;4.67;3.53;;;0.40;99.90;;;;;;8324181;28;20298;-65
2023/01/19 02:53:20;;;;;;;5.07;4.00;;;0.30;99.90;;;;;;8335265;28;20209;-66
2023/01/19 02:57:48;;;;;;;5.93;3.87;;;0.30;99.90;;;;;;8332274;28;20228;-67
2023/01/19 03:01:52;;;;;;;4.93;3.67;;;0.30;99.90;;;;;;8327204;28;20271;-67
2023/01/19 03:06:00;;;;;;;6.83;4.60;;;0.30;99.90;;;;;;8334252;28;20291;-66
2023/01/19 03:10:32;;;;;;;6.40;4.70;;;0.30;99.90;;;;;;8328489;28;20283;-66
2023/01/19 03:14:38;;;;;;;5.93;4.43;;;0.30;99.90;;;;;;8325229;28;20276;-66
2023/01/19 03:18:45;;;;;;;7.13;5.17;;;0.40;99.90;;;;;;8331029;28;20186;-66
2023/01/19 03:22:49;;;;;;;7.50;5.03;;;0.40;99.90;;;;;;8330379;28;20188;-66
2023/01/19 03:26:59;;;;;;;9.30;6.13;;;0.30;99.90;;;;;;8325631;28;20191;-66
2023/01/19 03:31:17;;;;;;;9.47;5.73;;;0.30;99.90;;;;;;8327079;28;20235;-66
2023/01/19 03:35:21;;;;;;;7.87;5.50;;;0.30;99.90;;;;;;8327956;28;20296;-65
2023/01/19 03:39:24;;;;;;;8.47;5.57;;;0.30;99.90;;;;;;8329101;28;20498;-65
2023/01/19 03:43:26;;;;;;;8.13;5.43;;;0.20;99.90;;;;;;8328263;28;20231;-65
2023/01/19 03:47:27;;;;;;;5.53;4.83;;;0.20;99.90;;;;;;8333477;28;20180;-65
2023/01/19 03:51:29;;;;;;;6.67;4.40;;;0.20;99.90;;;;;;8331766;28;20209;-65
2023/01/19 03:55:30;;;;;;;7.00;4.73;;;0.20;99.90;;;;;;8335779;28;20244;-65
2023/01/19 03:59:30;;;;;;;6.63;4.37;;;0.20;99.90;;;;;;8342243;28;20205;-65
2023/01/19 04:03:31;;;;;;;6.23;4.93;;;0.20;99.90;;;;;;8345167;28;20181;-65
2023/01/19 04:07:32;;;;;;;6.17;4.03;;;0.20;99.90;;;;;;8335911;28;20191;-65
2023/01/19 04:11:33;;;;;;;8.97;4.80;;;0.20;99.90;;;;;;8339381;28;20216;-64
2023/01/19 04:15:34;;;;;;;5.87;4.40;;;0.10;99.90;;;;;;8338488;28;20288;-65
2023/01/19 04:19:35;;;;;;;7.83;5.67;;;0.10;99.90;;;;;;8354302;28;20189;-64
2023/01/19 04:23:35;;;;;;;11.20;5.33;;;-0.10;99.90;;;;;;8337141;28;20203;-65
2023/01/19 04:27:36;;;;;;;9.00;5.47;;;-0.20;99.90;;;;;;8338341;28;20222;-65
2023/01/19 04:31:37;;;;;;;10.77;6.33;;;-0.30;99.90;;;;;;8340755;28;20231;-65
2023/01/19 04:35:38;;;;;;;12.77;7.30;;;-0.50;99.90;;;;;;8340305;28;20283;-64
2023/01/19 04:39:39;;;;;;;11.23;6.47;;;-0.70;99.90;;;;;;8336916;28;20195;-64
2023/01/19 04:43:40;;;;;;;11.07;6.27;;;-0.90;99.90;;;;;;8337038;28;20234;-64
2023/01/19 04:47:43;;;;;;;10.17;6.53;;;-1.10;99.90;;;;;;8334642;28;20202;-65
2023/01/19 04:51:44;;;;;;;17.30;6.63;;;-1.20;99.90;;;;;;8338020;28;20214;-65
2023/01/19 04:55:45;;;;;;;9.53;6.23;;;-1.30;99.90;;;;;;8334229;28;20432;-65
2023/01/19 04:59:46;;;;;;;12.90;7.20;;;-1.50;99.90;;;;;;8344489;28;20323;-65
2023/01/19 05:03:47;;;;;;;9.90;6.07;;;-1.60;99.90;;;;;;8337269;28;20186;-65
2023/01/19 05:07:48;;;;;;;9.07;6.13;;;-1.70;99.90;;;;;;8337257;28;20186;-65
2023/01/19 05:11:48;;;;;;;12.80;7.63;;;-1.80;99.90;;;;;;8331969;28;20440;-65
2023/01/19 05:15:49;;;;;;;11.90;7.63;;;-1.90;99.90;;;;;;8331816;28;20256;-66
2023/01/19 05:19:50;;;;;;;10.67;6.90;;;-1.90;99.90;;;;;;8337814;28;20221;-64
2023/01/19 05:23:51;;;;;;;10.47;5.87;;;-2.00;99.90;;;;;;8333509;28;20189;-65
2023/01/19 05:27:51;;;;;;;10.37;6.23;;;-2.20;99.90;;;;;;8331106;28;20215;-65
2023/01/19 05:31:52;;;;;;;9.30;5.90;;;-2.40;99.90;;;;;;8339346;28;20770;-65
2023/01/19 05:35:53;;;;;;;8.03;5.93;;;-2.50;99.90;;;;;;8334488;28;20206;-64
2023/01/19 05:39:54;;;;;;;10.67;6.33;;;-2.60;99.90;;;;;;8338502;28;20275;-65
2023/01/19 05:43:55;;;;;;;12.33;7.07;;;-2.70;99.90;;;;;;8336014;28;20245;-64
2023/01/19 05:47:56;;;;;;;14.23;7.37;;;-2.70;99.90;;;;;;8333326;28;20263;-64
2023/01/19 05:51:57;;;;;;;14.57;7.53;;;-2.80;99.90;;;;;;8337749;28;20213;-64
2023/01/19 05:56:03;;;;;;;11.63;7.13;;;-2.90;99.90;;;;;;8332566;28;20552;-65
2023/01/19 06:00:05;;;;;;;13.13;7.73;;;-3.00;99.90;;;;;;8331733;28;20190;-64
2023/01/19 06:04:06;;;;;;;11.57;6.73;;;-3.00;99.90;;;;;;8340319;28;20190;-64
2023/01/19 06:08:07;;;;;;;10.23;7.53;;;-3.10;99.90;;;;;;8337066;28;20274;-64
2023/01/19 06:12:08;;;;;;;13.03;6.67;;;-3.20;99.90;;;;;;8329702;28;20217;-64
2023/01/19 06:16:10;;;;;;;11.67;8.20;;;-3.30;99.90;;;;;;8328276;28;20185;-65
2023/01/19 06:20:12;;;;;;;14.20;8.87;;;-3.40;99.90;;;;;;8333867;28;20216;-63
2023/01/19 06:24:13;;;;;;;16.43;8.27;;;-3.50;99.90;;;;;;8337191;28;20193;-64
2023/01/19 06:28:14;;;;;;;13.83;8.80;;;-3.60;99.90;;;;;;8329134;28;20181;-65
2023/01/19 06:32:16;;;;;;;14.73;8.30;;;-3.60;99.90;;;;;;8330134;28;20232;-64
2023/01/19 06:36:17;;;;;;;14.63;8.80;;;-3.60;99.90;;;;;;8330030;28;20304;-64
2023/01/19 06:40:17;;;;;;;15.40;7.50;;;-3.70;99.90;;;;;;8336465;28;20206;-64
2023/01/19 06:44:18;;;;;;;16.00;8.87;;;-3.70;99.90;;;;;;8329377;28;20190;-63
2023/01/19 06:48:19;;;;;;;14.10;7.63;;;-3.80;99.90;;;;;;8329315;28;20216;-63
2023/01/19 06:52:20;;;;;;;14.83;8.17;;;-3.80;99.90;;;;;;8334830;28;20524;-65
2023/01/19 06:56:21;;;;;;;13.47;7.63;;;-3.80;99.90;;;;;;8325480;28;20190;-64
2023/01/19 07:00:23;;;;;;;15.00;8.03;;;-3.80;99.90;;;;;;8337018;28;20181;-64
2023/01/19 07:04:24;;;;;;;18.43;8.90;;;-3.90;99.90;;;;;;8331815;28;20186;-68
2023/01/19 07:08:25;;;;;;;16.90;10.50;;;-3.90;99.90;;;;;;8328749;28;20213;-68
2023/01/19 07:12:26;;;;;;;16.33;8.20;;;-3.80;99.90;;;;;;8337783;28;20221;-67
2023/01/19 07:16:26;;;;;;;14.83;8.63;;;-3.70;99.90;;;;;;8332105;28;20264;-68
2023/01/19 07:20:27;;;;;;;13.30;8.43;;;-3.60;99.90;;;;;;8332497;28;20185;-68
2023/01/19 07:24:33;;;;;;;16.17;8.63;;;-3.50;99.90;;;;;;8334823;28;20182;-68
2023/01/19 07:28:33;;;;;;;14.70;8.73;;;-3.40;99.90;;;;;;8330592;28;20209;-68
2023/01/19 07:32:37;;;;;;;13.50;7.67;;;-3.30;99.90;;;;;;8333559;28;20210;-68
2023/01/19 07:36:38;;;;;;;14.07;7.97;;;-3.30;99.90;;;;;;8328837;28;20854;-68
2023/01/19 07:40:39;;;;;;;10.53;7.67;;;-3.20;99.90;;;;;;8333873;28;20237;-68
2023/01/19 07:44:40;;;;;;;12.80;7.47;;;-3.20;99.90;;;;;;8328209;28;20185;-68
2023/01/19 07:48:43;;;;;;;12.53;7.60;;;-3.10;99.90;;;;;;8333291;28;20506;-68
2023/01/19 07:52:44;;;;;;;14.40;7.87;;;-3.00;99.90;;;;;;8326611;28;20259;-68
2023/01/19 07:56:45;;;;;;;14.57;8.03;;;-2.90;99.90;;;;;;8332050;28;20301;-68
2023/01/19 08:00:45;;;;;;;14.43;7.97;;;-2.80;99.90;;;;;;8334027;28;20190;-69
2023/01/19 08:04:49;;;;;;;15.20;8.57;;;-2.70;99.90;;;;;;8324710;28;20188;-68
2023/01/19 08:08:50;;;;;;;17.87;9.10;;;-2.50;99.90;;;;;;8334781;28;20242;-68
2023/01/19 08:12:52;;;;;;;23.50;11.33;;;-2.40;99.90;;;;;;8330936;28;20205;-70
2023/01/19 08:16:53;;;;;;;21.60;10.93;;;-2.20;99.90;;;;;;8336270;28;20177;-69
2023/01/19 08:20:54;;;;;;;17.87;9.60;;;-2.10;99.90;;;;;;8343544;28;20193;-70
2023/01/19 08:24:55;;;;;;;16.17;8.93;;;-2.00;99.90;;;;;;8335705;28;20182;-69
2023/01/19 08:28:58;;;;;;;17.33;7.57;;;-1.90;99.90;;;;;;8335603;28;20205;-70
2023/01/19 08:33:07;;;;;;;10.10;7.33;;;-1.80;99.90;;;;;;8337920;28;20207;-70
2023/01/19 08:37:07;;;;;;;13.07;8.00;;;-1.70;99.90;;;;;;8328911;28;20236;-69
2023/01/19 08:41:09;;;;;;;12.00;7.40;;;-1.60;99.90;;;;;;8338756;28;20336;-70
2023/01/19 08:45:10;;;;;;;11.50;7.73;;;-1.40;99.90;;;;;;8336775;28;20179;-68
2023/01/19 08:49:11;;;;;;;14.30;8.40;;;-1.30;99.90;;;;;;8337288;28;20207;-68
2023/01/19 08:53:12;;;;;;;19.00;8.97;;;-1.20;99.90;;;;;;8345440;28;20239;-67
2023/01/19 08:57:14;;;;;;;18.90;9.13;;;-1.10;99.90;;;;;;8338238;28;20188;-70
2023/01/19 09:01:19;;;;;;;15.47;9.80;;;-0.90;99.90;;;;;;8338734;28;20197;-68
2023/01/19 09:05:19;;;;;;;14.93;8.90;;;-0.90;99.90;;;;;;8333552;28;20283;-69
2023/01/19 09:09:20;;;;;;;13.13;7.87;;;-0.80;99.90;;;;;;8339128;28;20202;-69
2023/01/19 09:13:21;;;;;;;18.17;10.03;;;-0.70;99.90;;;;;;8340084;28;20234;-68
2023/01/19 09:17:22;;;;;;;10.67;7.73;;;-0.50;99.90;;;;;;8330800;28;20320;-69
2023/01/19 09:21:23;;;;;;;12.70;8.37;;;-0.50;99.90;;;;;;8342424;28;20280;-66
2023/01/19 09:25:24;;;;;;;13.07;8.57;;;-0.40;99.90;;;;;;8338112;28;20188;-67
2023/01/19 09:29:25;;;;;;;14.00;8.90;;;-0.30;99.90;;;;;;8336532;28;20194;-69
2023/01/19 09:33:26;;;;;;;13.20;8.13;;;-0.10;99.90;;;;;;8341247;28;20212;-72
2023/01/19 09:37:27;;;;;;;13.63;8.77;;;0.10;99.90;;;;;;8338228;28;20187;-68
2023/01/19 09:41:29;;;;;;;15.50;8.17;;;0.20;99.90;;;;;;8342620;28;20283;-69
2023/01/19 09:45:35;;;;;;;13.40;9.07;;;0.40;99.90;;;;;;8334789;28;20202;-69
2023/01/19 09:49:43;;;;;;;15.77;8.77;;;0.50;99.90;;;;;;8332595;28;20251;-68
2023/01/19 09:54:09;;;;;;;12.43;8.27;;;0.70;99.90;;;;;;8333888;28;20177;-69
2023/01/19 09:58:15;;;;;;;10.13;7.23;;;0.70;99.90;;;;;;8334711;28;20244;-70
2023/01/19 10:02:27;;;;;;;17.07;8.20;;;0.90;70.80;;;;;;8339778;28;20197;-70
2023/01/19 10:06:28;;;;;;;12.27;7.57;;;0.90;1.00;;;;;;8340072;28;20225;-69
2023/01/19 10:10:33;;;;;;;15.57;7.43;;;0.90;99.90;;;;;;8332813;28;20292;-68
2023/01/19 10:14:42;;;;;;;15.00;8.57;;;1.00;99.90;;;;;;8334442;28;20209;-69
2023/01/19 10:18:50;;;;;;;13.03;7.50;;;1.00;99.90;;;;;;8333661;28;20179;-69
2023/01/19 10:22:51;;;;;;;14.17;8.37;;;1.10;99.90;;;;;;8344133;28;20265;-70
2023/01/19 10:26:56;;;;;;;15.83;7.87;;;1.20;99.60;;;;;;8336054;28;20205;-69
2023/01/19 10:30:56;;;;;;;12.80;7.70;;;1.10;1.00;;;;;;8332766;28;20198;-69
2023/01/19 10:34:58;;;;;;;13.80;7.73;;;1.20;1.00;;;;;;8336788;28;20224;-69
2023/01/19 10:38:59;;;;;;;10.47;7.00;;;1.20;14.40;;;;;;8334053;28;20249;-69
2023/01/19 10:43:00;;;;;;;9.83;6.40;;;1.30;1.00;;;;;;8338750;28;20214;-69
2023/01/19 10:47:03;;;;;;;11.10;6.40;;;1.30;1.00;;;;;;8334617;28;20216;-68
2023/01/19 10:51:05;;;;;;;7.90;5.40;;;1.30;99.90;;;;;;8332677;28;20209;-69
2023/01/19 10:55:17;;;;;;;9.27;5.30;;;1.30;1.00;;;;;;8337696;28;20190;-69
2023/01/19 10:59:56;;;;;;;8.47;5.50;;;1.20;1.00;;;;;;8328222;28;20204;-67
2023/01/19 11:04:04;;;;;;;8.80;4.70;;;1.10;1.00;;;;;;8335610;28;20201;-70
2023/01/19 11:08:22;;;;;;;7.13;4.43;;;1.10;1.00;;;;;;8338243;28;20221;-69
2023/01/19 11:12:23;;;;;;;11.70;4.50;;;1.10;1.00;;;;;;8333245;28;20217;-70
2023/01/19 11:16:26;;;;;;;6.70;4.00;;;1.10;1.00;;;;;;8338660;28;20209;-70
2023/01/19 11:21:10;;;;;;;7.77;4.33;;;1.10;1.00;;;;;;8339047;28;20189;-71
2023/01/19 11:25:30;;;;;;;5.83;4.30;;;1.20;1.00;;;;;;8316229;28;20198;-70
2023/01/19 11:29:31;;;;;;;7.03;4.47;;;1.30;1.00;;;;;;8333857;28;20187;-69
2023/01/19 11:33:52;;;;;;;6.83;4.93;;;1.50;1.00;;;;;;8337756;28;20217;-70
2023/01/19 11:38:10;;;;;;;8.47;4.77;;;1.60;1.00;;;;;;8333458;28;20198;-69
2023/01/19 11:42:12;;;;;;;11.77;6.43;;;1.70;1.00;;;;;;8327190;28;20210;-69
2023/01/19 11:46:14;;;;;;;11.47;5.27;;;1.90;99.90;;;;;;8347566;28;20288;-71
2023/01/19 11:50:27;;;;;;;9.80;5.97;;;2.00;99.90;;;;;;8333176;28;20261;-69
2023/01/19 11:54:38;;;;;;;8.77;5.47;;;2.10;99.90;;;;;;8337884;28;20181;-69
2023/01/19 11:58:45;;;;;;;8.27;5.03;;;2.10;99.90;;;;;;8332606;28;20277;-69
2023/01/19 12:02:49;;;;;;;9.63;5.03;;;2.10;99.90;;;;;;8330353;28;20289;-68
2023/01/19 12:06:53;;;;;;;6.67;4.53;;;2.20;99.90;;;;;;8331193;28;20179;-67
2023/01/19 12:10:58;;;;;;;8.47;5.00;;;2.00;99.90;;;;;;8334616;28;20241;-69
2023/01/19 12:15:25;;;;;;;7.47;4.83;;;2.00;99.90;;;;;;8327673;28;20182;-71
2023/01/19 12:19:45;;;;;;;8.27;5.20;;;2.10;99.90;;;;;;8339667;28;20263;-69
2023/01/19 12:23:52;;;;;;;8.87;5.70;;;2.00;99.90;;;;;;8337472;28;20184;-70
2023/01/19 12:27:53;;;;;;;8.50;4.73;;;2.00;99.90;;;;;;8337135;28;20194;-69
2023/01/19 12:32:13;;;;;;;7.83;4.87;;;1.90;99.90;;;;;;8346526;28;20233;-71
2023/01/19 12:36:26;;;;;;;6.40;4.40;;;1.90;99.90;;;;;;8338221;28;20202;-69
2023/01/19 12:40:29;;;;;;;7.67;4.33;;;2.00;99.90;;;;;;8335676;28;20542;-69
2023/01/19 12:44:32;;;;;;;8.67;3.87;;;1.80;99.90;;;;;;8341936;28;20182;-71
2023/01/19 12:48:33;;;;;;;5.03;3.50;;;1.70;99.90;;;;;;8335822;28;20270;-72
2023/01/19 12:52:39;;;;;;;5.43;3.60;;;1.80;99.90;;;;;;8339270;28;20206;-68
2023/01/19 12:56:41;;;;;;;6.73;4.00;;;1.90;99.90;;;;;;8337396;28;20178;-70
2023/01/19 13:00:44;;;;;;;7.73;4.30;;;2.00;99.90;;;;;;8334382;28;20206;-72
2023/01/19 13:05:15;;;;;;;9.17;4.30;;;2.00;99.90;;;;;;8333385;28;20214;-72
2023/01/19 13:09:36;;;;;;;6.07;4.03;;;2.00;99.90;;;;;;8335985;28;20186;-71
2023/01/19 13:13:57;;;;;;;8.90;3.63;;;2.20;99.90;;;;;;8339116;28;20197;-70
2023/01/19 13:18:00;;;;;;;7.40;3.93;;;2.30;99.90;;;;;;8337058;28;20218;-72
2023/01/19 13:22:40;;;;;;;5.93;3.87;;;2.30;99.90;;;;;;8334853;28;20186;-72
2023/01/19 13:26:59;;;;;;;6.07;3.60;;;2.30;99.90;;;;;;8332613;28;20198;-71
2023/01/19 13:31:01;;;;;;;6.07;3.83;;;2.30;99.90;;;;;;8333692;28;20241;-71
2023/01/19 13:35:04;;;;;;;7.00;4.17;;;2.20;99.90;;;;;;8334559;28;20241;-71
2023/01/19 13:39:18;;;;;;;7.70;4.00;;;2.10;99.90;;;;;;8338985;28;20420;-71
2023/01/19 13:43:26;;;;;;;6.07;3.63;;;2.00;99.90;;;;;;8337157;28;20194;-71
2023/01/19 13:47:48;;;;;;;7.10;3.80;;;2.00;99.90;;;;;;8330343;28;20182;-70
2023/01/19 13:52:13;;;;;;;6.07;3.73;;;1.90;99.90;;;;;;8339343;28;20206;-68
2023/01/19 13:56:20;;;;;;;8.70;4.60;;;1.80;99.90;;;;;;8332254;28;20189;-70
2023/01/19 14:00:27;;;;;;;6.23;3.70;;;1.80;99.90;;;;;;8333836;28;20214;-70
2023/01/19 14:04:32;;;;;;;4.23;3.07;;;1.70;99.90;;;;;;8338580;28;20190;-69
2023/01/19 14:08:33;;;;;;;4.77;2.97;;;1.70;99.90;;;;;;8334453;28;20187;-70
2023/01/19 14:12:34;;;;;;;6.10;3.03;;;1.70;99.90;;;;;;8351957;28;20197;-69
2023/01/19 14:16:35;;;;;;;4.40;3.37;;;1.60;99.90;;;;;;8336308;28;20184;-71
2023/01/19 14:20:36;;;;;;;4.83;3.27;;;1.60;99.90;;;;;;8338678;28;20281;-70
2023/01/19 14:24:37;;;;;;;4.73;3.20;;;1.50;99.90;;;;;;8341928;28;20193;-71
2023/01/19 14:28:43;;;;;;;6.17;3.40;;;1.40;99.90;;;;;;8331914;28;20182;-69
2023/01/19 14:32:46;;;;;;;5.50;3.40;;;1.30;99.90;;;;;;8331797;28;20230;-71
2023/01/19 14:36:50;;;;;;;6.93;3.80;;;1.20;99.90;;;;;;8334980;28;20190;-71
2023/01/19 14:40:51;;;;;;;4.70;3.03;;;1.00;99.90;;;;;;8337076;28;20233;-70
2023/01/19 14:44:54;;;;;;;4.87;3.07;;;0.90;1.00;;;;;;8333334;28;20407;-71
2023/01/19 14:49:01;;;;;;;6.50;3.33;;;0.70;1.00;;;;;;8331639;28;20185;-72
2023/01/19 14:53:20;;;;;;;5.57;3.23;;;0.50;1.00;;;;;;8333699;28;20194;-71
2023/01/19 14:57:21;;;;;;;6.13;2.77;;;0.30;1.00;;;;;;8333042;28;20182;-71
2023/01/19 15:01:23;;;;;;;7.37;3.90;;;0.10;1.00;;;;;;8338702;28;20197;-69
2023/01/19 15:05:24;;;;;;;4.57;2.87;;;-0.20;1.00;;;;;;8322436;28;20183;-70
2023/01/19 15:09:26;;;;;;;6.77;3.57;;;-0.40;46.20;;;;;;8332621;28;20182;-70
2023/01/19 15:13:27;;;;;;;7.03;3.40;;;-0.60;99.90;;;;;;8337987;28;20675;-70
2023/01/19 15:17:27;;;;;;;6.83;3.93;;;-0.80;99.90;;;;;;8339181;28;20185;-70
2023/01/19 15:21:28;;;;;;;9.63;4.27;;;-1.00;99.90;;;;;;8338766;28;20235;-70
2023/01/19 15:25:30;;;;;;;6.90;4.43;;;-1.20;99.90;;;;;;8330987;28;20190;-70
2023/01/19 15:29:31;;;;;;;7.00;4.00;;;-1.30;1.00;;;;;;8332744;28;20279;-70
2023/01/19 15:33:33;;;;;;;15.73;9.33;;;-1.40;2.90;;;;;;8328437;28;20211;-70
2023/01/19 15:37:35;;;;;;;26.43;14.40;;;-1.50;99.90;;;;;;8328452;28;20203;-71
2023/01/19 15:41:38;;;;;;;25.97;14.60;;;-1.70;99.90;;;;;;8333236;28;20209;-70
2023/01/19 15:45:59;;;;;;;23.70;12.50;;;-1.80;1.00;;;;;;8326275;28;20206;-70
2023/01/19 15:49:59;;;;;;;16.33;10.57;;;-1.90;1.00;;;;;;8334779;28;20382;-70
2023/01/19 15:54:00;;;;;;;12.73;7.00;;;-2.10;1.00;;;;;;8328197;28;20912;-65
2023/01/19 15:58:01;;;;;;;19.23;10.50;;;-2.30;32.00;;;;;;8335573;28;20595;-66
2023/01/19 16:02:04;;;;;;;18.63;10.07;;;-2.40;99.90;;;;;;8332791;28;20183;-66
2023/01/19 16:06:05;;;;;;;17.20;8.70;;;-2.40;99.90;;;;;;8327540;28;20183;-64
2023/01/19 16:10:08;;;;;;;10.07;6.23;;;-2.50;1.00;;;;;;8329833;28;20233;-65
2023/01/19 16:14:09;;;;;;;9.00;5.83;;;-2.60;36.10;;;;;;8332349;28;20197;-64
2023/01/19 16:18:10;;;;;;;8.17;5.07;;;-2.70;99.90;;;;;;8329979;28;20619;-65
2023/01/19 16:22:11;;;;;;;7.90;4.23;;;-2.80;1.00;;;;;;8337553;28;20196;-64
2023/01/19 16:26:33;;;;;;;9.50;4.53;;;-2.90;99.90;;;;;;8329947;28;20186;-64
2023/01/19 16:30:34;;;;;;;8.17;4.27;;;-3.00;1.00;;;;;;8324889;28;20205;-64
2023/01/19 16:34:34;;;;;;;15.87;7.97;;;-3.00;58.80;;;;;;8332726;28;20209;-64
2023/01/19 16:38:35;;;;;;;15.70;9.30;;;-3.10;99.90;;;;;;8330846;28;20521;-63
2023/01/19 16:42:36;;;;;;;16.63;8.70;;;-3.10;1.00;;;;;;8331025;28;20190;-64
2023/01/19 16:46:40;;;;;;;19.27;9.07;;;-3.20;1.00;;;;;;8326991;28;20177;-64
2023/01/19 16:50:40;;;;;;;12.03;6.93;;;-3.20;1.00;;;;;;8333594;28;20284;-64
2023/01/19 16:54:42;;;;;;;7.40;4.30;;;-3.30;1.00;;;;;;8334262;28;20184;-63
2023/01/19 16:58:43;;;;;;;7.50;3.93;;;-3.40;1.00;;;;;;8334165;28;20186;-64
2023/01/19 17:02:44;;;;;;;7.63;4.53;;;-3.50;99.90;;;;;;8334640;28;20364;-63
2023/01/19 17:06:46;;;;;;;9.60;4.73;;;-3.50;1.00;;;;;;8330307;28;20182;-64
2023/01/19 17:10:47;;;;;;;10.67;5.20;;;-3.60;50.50;;;;;;8338748;28;20279;-63
2023/01/19 17:14:48;;;;;;;11.33;5.00;;;-3.60;99.90;;;;;;8330773;28;20189;-63
2023/01/19 17:18:49;;;;;;;9.23;5.47;;;-3.70;99.90;;;;;;8337113;28;20292;-63
2023/01/19 17:22:50;;;;;;;12.13;5.57;;;-3.80;99.90;;;;;;8339940;28;20190;-63
2023/01/19 17:26:51;;;;;;;10.80;5.13;;;-3.80;1.00;;;;;;8336357;28;20213;-63
2023/01/19 17:30:53;;;;;;;10.00;5.67;;;-3.90;99.90;;;;;;8334273;28;20224;-64
2023/01/19 17:34:54;;;;;;;12.70;6.40;;;-3.90;1.00;;;;;;8333581;28;20202;-64
2023/01/19 17:38:56;;;;;;;11.53;6.13;;;-4.00;99.90;;;;;;8336957;28;20224;-64
2023/01/19 17:42:57;;;;;;;14.27;6.60;;;-4.10;78.40;;;;;;8333658;28;20182;-64
2023/01/19 17:46:58;;;;;;;13.53;6.97;;;-4.10;1.00;;;;;;8328218;28;21106;-63
2023/01/19 17:51:04;;;;;;;15.43;7.03;;;-4.20;99.90;;;;;;8331995;28;20205;-63
2023/01/19 17:55:05;;;;;;;19.10;7.27;;;-4.20;1.00;;;;;;8340170;28;20497;-63
2023/01/19 17:59:06;;;;;;;11.53;6.83;;;-4.20;1.00;;;;;;8330678;28;20174;-63
2023/01/19 18:03:07;;;;;;;13.77;6.57;;;-4.10;99.90;;;;;;8331858;28;20186;-63
2023/01/19 18:07:08;;;;;;;14.43;7.20;;;-4.00;1.00;;;;;;8326338;28;20190;-63
2023/01/19 18:11:10;;;;;;;13.63;8.07;;;-3.90;1.00;;;;;;8333455;28;20213;-63
2023/01/19 18:15:11;;;;;;;13.53;6.67;;;-3.70;99.90;;;;;;8326692;28;20296;-64
2023/01/19 18:19:13;;;;;;;12.17;6.03;;;-3.70;99.90;;;;;;8334367;28;20190;-63
2023/01/19 18:23:13;;;;;;;13.60;6.93;;;-3.60;99.90;;;;;;8333996;28;20261;-64
2023/01/19 18:27:15;;;;;;;14.83;7.30;;;-3.50;1.00;;;;;;8333248;28;20194;-65
2023/01/19 18:31:17;;;;;;;13.93;7.40;;;-3.40;1.00;;;;;;8326643;28;20344;-64
2023/01/19 18:35:18;;;;;;;16.77;7.73;;;-3.40;99.90;;;;;;8332624;28;20391;-63
2023/01/19 18:39:19;;;;;;;15.10;7.50;;;-3.30;1.00;;;;;;8329271;28;20216;-63
2023/01/19 18:43:20;;;;;;;15.23;7.57;;;-3.30;99.90;;;;;;8329737;28;20182;-64
2023/01/19 18:47:21;;;;;;;14.17;7.73;;;-3.20;99.90;;;;;;8330233;28;20357;-64
2023/01/19 18:51:21;;;;;;;14.43;7.63;;;-3.10;1.00;;;;;;8334772;28;20210;-64
2023/01/19 18:55:23;;;;;;;14.03;8.13;;;-3.10;79.10;;;;;;8327194;28;20186;-64
2023/01/19 18:59:23;;;;;;;15.23;8.17;;;-3.10;1.00;;;;;;8337259;28;20179;-65
2023/01/19 19:03:26;;;;;;;22.27;9.03;;;-3.10;99.90;;;;;;8331895;28;20185;-65
2023/01/19 19:07:28;;;;;;;17.63;8.80;;;-3.10;99.90;;;;;;8332295;28;20209;-64
2023/01/19 19:11:29;;;;;;;16.97;8.83;;;-3.20;99.90;;;;;;8328629;28;20201;-64
2023/01/19 19:15:31;;;;;;;19.60;9.60;;;-3.20;1.00;;;;;;8331502;28;20177;-65
2023/01/19 19:19:32;;;;;;;18.90;9.23;;;-3.20;1.00;;;;;;8333279;28;20307;-64
2023/01/19 19:23:34;;;;;;;18.60;10.57;;;-3.20;99.90;;;;;;8332965;28;20179;-64
2023/01/19 19:27:35;;;;;;;20.93;10.83;;;-3.20;99.90;;;;;;8337313;28;20190;-65
2023/01/19 19:31:36;;;;;;;26.07;11.77;;;-3.20;1.00;;;;;;8329152;28;20193;-64
2023/01/19 19:35:37;;;;;;;20.07;10.33;;;-3.20;1.00;;;;;;8332061;28;20285;-65
2023/01/19 19:39:38;;;;;;;21.00;11.20;;;-3.10;99.90;;;;;;8310820;28;20269;-64
2023/01/19 19:43:39;;;;;;;23.10;11.50;;;-3.10;1.00;;;;;;8264854;28;20190;-64
2023/01/19 19:47:41;;;;;;;26.30;11.90;;;-3.00;1.00;;;;;;8262790;28;20188;-65
2023/01/19 19:51:42;;;;;;;21.47;10.57;;;-3.00;1.00;;;;;;8264507;28;20302;-64
2023/01/19 19:55:43;;;;;;;19.40;10.73;;;-2.90;1.00;;;;;;8259155;28;20222;-64
2023/01/19 19:59:44;;;;;;;19.20;10.97;;;-2.90;1.00;;;;;;8267018;28;20186;-65
2023/01/19 20:03:45;;;;;;;19.00;10.30;;;-2.80;1.00;;;;;;8267066;28;20195;-65
2023/01/19 20:07:47;;;;;;;20.40;11.60;;;-2.80;99.90;;;;;;8261903;28;20178;-64
2023/01/19 20:11:48;;;;;;;17.03;9.93;;;-2.70;99.90;;;;;;8263905;28;20206;-65
2023/01/19 20:15:48;;;;;;;18.70;10.27;;;-2.70;99.90;;;;;;8261263;28;20369;-64
2023/01/19 20:19:49;;;;;;;18.53;9.33;;;-2.70;99.90;;;;;;8263650;28;20273;-65
2023/01/19 20:23:52;;;;;;;18.47;9.93;;;-2.70;99.90;;;;;;8265220;28;20190;-65
2023/01/19 20:27:53;;;;;;;19.30;10.13;;;-2.70;99.90;;;;;;8268274;28;20214;-64
2023/01/19 20:31:55;;;;;;;17.77;9.47;;;-2.60;99.90;;;;;;8267379;28;20212;-65
2023/01/19 20:35:56;;;;;;;18.17;9.23;;;-2.60;99.90;;;;;;8262423;28;20203;-65
2023/01/19 20:39:57;;;;;;;22.03;9.33;;;-2.50;99.90;;;;;;8264946;28;20199;-64
2023/01/19 20:43:58;;;;;;;17.60;9.03;;;-2.50;99.90;;;;;;8269480;28;20184;-65
2023/01/19 20:47:59;;;;;;;14.07;7.97;;;-2.50;99.90;;;;;;8268581;28;20282;-65
2023/01/19 20:52:00;;;;;;;14.30;8.47;;;-2.50;99.90;;;;;;8269392;28;20238;-65
2023/01/19 20:56:12;;;;;;;17.77;9.63;;;-2.40;99.90;;;;;;8271829;28;20179;-65
2023/01/19 21:00:13;;;;;;;14.00;8.70;;;-2.40;99.90;;;;;;8275226;28;20180;-65
2023/01/19 21:04:15;;;;;;;16.93;9.00;;;-2.40;99.90;;;;;;8272886;28;20183;-64
2023/01/19 21:08:17;;;;;;;14.03;9.03;;;-2.50;99.90;;;;;;8273424;28;20195;-65
2023/01/19 21:12:19;;;;;;;13.47;8.17;;;-2.50;99.90;;;;;;8267086;28;20211;-65
2023/01/19 21:16:25;;;;;;;16.27;9.30;;;-2.60;99.90;;;;;;8269284;28;20176;-63
2023/01/19 21:20:28;;;;;;;17.07;8.97;;;-2.60;99.90;;;;;;8270362;28;20187;-63